sensor_id;sensor_type;location;lat;lon;timestamp;temperature;humidity
81140;SHT31;70624;51.978;5.656;2023-07-30T17:52:53;22.9;55.0
81140;SHT31;70624;51.978;5.656;2023-07-30T17:55:22;22.7;55.6
81140;SHT31;70624;51.978;5.656;2023-07-30T17:57:51;22.7;55.6
81140;SHT31;70624;51.978;5.656;2023-07-30T18:00:20;22.6;55.6
81140;SHT31;70624;51.978;5.656;2023-07-30T18:02:50;22.6;55.8
81140;SHT31;70624;51.978;5.656;2023-07-30T18:05:19;22.5;56.2
81140;SHT31;70624;51.978;5.656;2023-07-30T18:07:47;22.5;56.3
81140;SHT31;70624;51.978;5.656;2023-07-30T18:10:16;22.4;56.7
81140;SHT31;70624;51.978;5.656;2023-07-30T18:12:44;22.4;57.0
81140;SHT31;70624;51.978;5.656;2023-07-30T18:15:13;22.3;57.9
81140;SHT31;70624;51.978;5.656;2023-07-30T18:17:41;22.2;59.0
81140;SHT31;70624;51.978;5.656;2023-07-30T18:20:11;22.1;59.8
81140;SHT31;70624;51.978;5.656;2023-07-30T18:22:41;21.9;59.9
81140;SHT31;70624;51.978;5.656;2023-07-30T18:25:10;21.8;60.3
81140;SHT31;70624;51.978;5.656;2023-07-30T18:27:38;21.7;60.8
81140;SHT31;70624;51.978;5.656;2023-07-30T18:30:07;21.6;61.3
81140;SHT31;70624;51.978;5.656;2023-07-30T18:32:36;21.5;61.4
81140;SHT31;70624;51.978;5.656;2023-07-30T18:35:05;21.4;62.1
81140;SHT31;70624;51.978;5.656;2023-07-30T18:37:33;21.3;62.1
81140;SHT31;70624;51.978;5.656;2023-07-30T18:40:02;21.2;63.0
81140;SHT31;70624;51.978;5.656;2023-07-30T18:42:31;21.2;63.9
81140;SHT31;70624;51.978;5.656;2023-07-30T18:45:00;21.1;64.5
81140;SHT31;70624;51.978;5.656;2023-07-30T18:47:28;21.0;64.8
81140;SHT31;70624;51.978;5.656;2023-07-30T18:49:57;20.9;65.5
81140;SHT31;70624;51.978;5.656;2023-07-30T18:52:25;20.7;66.1
81140;SHT31;70624;51.978;5.656;2023-07-30T18:54:56;20.6;66.5
81140;SHT31;70624;51.978;5.656;2023-07-30T18:57:24;20.6;67.5
81140;SHT31;70624;51.978;5.656;2023-07-30T18:59:53;20.5;67.6
81140;SHT31;70624;51.978;5.656;2023-07-30T19:02:23;20.4;68.2
81140;SHT31;70624;51.978;5.656;2023-07-30T19:04:51;20.4;68.7
81140;SHT31;70624;51.978;5.656;2023-07-30T19:07:20;20.3;68.9
81140;SHT31;70624;51.978;5.656;2023-07-30T19:09:50;20.2;69.2
81140;SHT31;70624;51.978;5.656;2023-07-30T19:12:18;20.2;70.1
81140;SHT31;70624;51.978;5.656;2023-07-30T19:14:47;20.1;70.7
81140;SHT31;70624;51.978;5.656;2023-07-30T19:17:15;20.1;70.9
81140;SHT31;70624;51.978;5.656;2023-07-30T19:19:47;20.0;70.8
81140;SHT31;70624;51.978;5.656;2023-07-30T19:22:17;19.9;71.5
81140;SHT31;70624;51.978;5.656;2023-07-30T19:24:46;19.9;71.8
81140;SHT31;70624;51.978;5.656;2023-07-30T19:27:15;19.8;72.4
81140;SHT31;70624;51.978;5.656;2023-07-30T19:29:43;19.7;72.6
81140;SHT31;70624;51.978;5.656;2023-07-30T19:32:13;19.7;73.2
81140;SHT31;70624;51.978;5.656;2023-07-30T19:34:42;19.6;73.4
81140;SHT31;70624;51.978;5.656;2023-07-30T19:37:10;19.5;73.3
81140;SHT31;70624;51.978;5.656;2023-07-30T19:39:39;19.5;74.1
81140;SHT31;70624;51.978;5.656;2023-07-30T19:42:07;19.4;74.4
81140;SHT31;70624;51.978;5.656;2023-07-30T19:44:36;19.4;74.7
81140;SHT31;70624;51.978;5.656;2023-07-30T19:47:04;19.3;75.2
81140;SHT31;70624;51.978;5.656;2023-07-30T19:49:33;19.3;75.1
81140;SHT31;70624;51.978;5.656;2023-07-30T19:52:03;19.3;75.3
81140;SHT31;70624;51.978;5.656;2023-07-30T19:54:31;19.2;75.6
81140;SHT31;70624;51.978;5.656;2023-07-30T19:57:00;19.2;76.2
81140;SHT31;70624;51.978;5.656;2023-07-30T19:59:28;19.1;75.4
81140;SHT31;70624;51.978;5.656;2023-07-30T20:01:58;19.1;76.2
81140;SHT31;70624;51.978;5.656;2023-07-30T20:04:26;19.1;76.2
81140;SHT31;70624;51.978;5.656;2023-07-30T20:06:55;19.0;76.4
81140;SHT31;70624;51.978;5.656;2023-07-30T20:09:25;19.0;76.8
81140;SHT31;70624;51.978;5.656;2023-07-30T20:11:54;19.0;77.0
81140;SHT31;70624;51.978;5.656;2023-07-30T20:14:22;18.9;77.1
81140;SHT31;70624;51.978;5.656;2023-07-30T20:16:50;18.9;77.0
81140;SHT31;70624;51.978;5.656;2023-07-30T20:19:19;18.9;76.6
81140;SHT31;70624;51.978;5.656;2023-07-30T20:21:47;18.9;76.9
81140;SHT31;70624;51.978;5.656;2023-07-30T20:24:19;18.9;77.1
81140;SHT31;70624;51.978;5.656;2023-07-30T20:26:49;18.8;77.0
81140;SHT31;70624;51.978;5.656;2023-07-30T20:29:17;18.8;77.1
81140;SHT31;70624;51.978;5.656;2023-07-30T20:31:48;18.8;77.2
81140;SHT31;70624;51.978;5.656;2023-07-30T20:34:17;18.8;77.1
81140;SHT31;70624;51.978;5.656;2023-07-30T20:36:45;18.8;76.6
81140;SHT31;70624;51.978;5.656;2023-07-30T20:39:13;18.8;77.0
81140;SHT31;70624;51.978;5.656;2023-07-30T20:41:42;18.7;76.8
81140;SHT31;70624;51.978;5.656;2023-07-30T20:44:12;18.7;77.0
81140;SHT31;70624;51.978;5.656;2023-07-30T20:46:41;18.7;76.4
81140;SHT31;70624;51.978;5.656;2023-07-30T20:49:09;18.7;77.0
81140;SHT31;70624;51.978;5.656;2023-07-30T20:51:37;18.7;77.3
81140;SHT31;70624;51.978;5.656;2023-07-30T20:54:06;18.7;76.8
81140;SHT31;70624;51.978;5.656;2023-07-30T20:56:36;18.6;76.3
81140;SHT31;70624;51.978;5.656;2023-07-30T20:59:04;18.6;76.9
81140;SHT31;70624;51.978;5.656;2023-07-30T21:01:32;18.6;76.5
81140;SHT31;70624;51.978;5.656;2023-07-30T21:04:01;18.5;77.6
81140;SHT31;70624;51.978;5.656;2023-07-30T21:06:31;18.5;76.9
81140;SHT31;70624;51.978;5.656;2023-07-30T21:08:59;18.5;77.6
81140;SHT31;70624;51.978;5.656;2023-07-30T21:11:29;18.5;76.9
81140;SHT31;70624;51.978;5.656;2023-07-30T21:13:57;18.5;77.0
81140;SHT31;70624;51.978;5.656;2023-07-30T21:16:26;18.5;77.4
81140;SHT31;70624;51.978;5.656;2023-07-30T21:18:54;18.4;77.3
81140;SHT31;70624;51.978;5.656;2023-07-30T21:21:24;18.4;77.3
81140;SHT31;70624;51.978;5.656;2023-07-30T21:23:53;18.4;77.5
81140;SHT31;70624;51.978;5.656;2023-07-30T21:26:21;18.4;77.8
81140;SHT31;70624;51.978;5.656;2023-07-30T21:28:49;18.4;77.7
81140;SHT31;70624;51.978;5.656;2023-07-30T21:31:18;18.4;77.8
81140;SHT31;70624;51.978;5.656;2023-07-30T21:33:46;18.4;77.5
81140;SHT31;70624;51.978;5.656;2023-07-30T21:36:15;18.4;76.6
81140;SHT31;70624;51.978;5.656;2023-07-30T21:38:43;18.3;76.2
81140;SHT31;70624;51.978;5.656;2023-07-30T21:41:12;18.3;76.9
81140;SHT31;70624;51.978;5.656;2023-07-30T21:43:40;18.3;76.7
81140;SHT31;70624;51.978;5.656;2023-07-30T21:46:09;18.3;76.5
81140;SHT31;70624;51.978;5.656;2023-07-30T21:48:37;18.2;77.5
81140;SHT31;70624;51.978;5.656;2023-07-30T21:51:06;18.2;76.7
81140;SHT31;70624;51.978;5.656;2023-07-30T21:53:35;18.2;76.4
81140;SHT31;70624;51.978;5.656;2023-07-30T21:56:05;18.2;76.7
81140;SHT31;70624;51.978;5.656;2023-07-30T21:58:34;18.2;75.7
81140;SHT31;70624;51.978;5.656;2023-07-30T22:01:03;18.2;75.7
81140;SHT31;70624;51.978;5.656;2023-07-30T22:03:32;18.2;76.4
81140;SHT31;70624;51.978;5.656;2023-07-30T22:06:02;18.2;76.0
81140;SHT31;70624;51.978;5.656;2023-07-30T22:08:30;18.2;76.1
81140;SHT31;70624;51.978;5.656;2023-07-30T22:10:59;18.2;75.9
81140;SHT31;70624;51.978;5.656;2023-07-30T22:13:27;18.1;75.7
81140;SHT31;70624;51.978;5.656;2023-07-30T22:15:58;18.1;76.2
81140;SHT31;70624;51.978;5.656;2023-07-30T22:18:26;18.1;76.0
81140;SHT31;70624;51.978;5.656;2023-07-30T22:20:54;18.0;77.1
81140;SHT31;70624;51.978;5.656;2023-07-30T22:23:23;18.0;77.0
81140;SHT31;70624;51.978;5.656;2023-07-30T22:25:52;18.0;77.1
81140;SHT31;70624;51.978;5.656;2023-07-30T22:28:23;17.9;76.7
81140;SHT31;70624;51.978;5.656;2023-07-30T22:30:53;17.9;76.6
81140;SHT31;70624;51.978;5.656;2023-07-30T22:33:21;17.9;76.6
81140;SHT31;70624;51.978;5.656;2023-07-30T22:35:54;17.8;77.2
81140;SHT31;70624;51.978;5.656;2023-07-30T22:38:23;17.8;77.5
81140;SHT31;70624;51.978;5.656;2023-07-30T22:40:51;17.8;77.3
81140;SHT31;70624;51.978;5.656;2023-07-30T22:43:22;17.8;77.1
81140;SHT31;70624;51.978;5.656;2023-07-30T22:45:51;17.8;77.6
81140;SHT31;70624;51.978;5.656;2023-07-30T22:48:19;17.7;77.3
81140;SHT31;70624;51.978;5.656;2023-07-30T22:50:48;17.7;78.0
81140;SHT31;70624;51.978;5.656;2023-07-30T22:53:16;17.7;77.8
81140;SHT31;70624;51.978;5.656;2023-07-30T22:55:45;17.7;78.3
81140;SHT31;70624;51.978;5.656;2023-07-30T22:58:13;17.7;78.4
81140;SHT31;70624;51.978;5.656;2023-07-30T23:00:42;17.7;78.0
81140;SHT31;70624;51.978;5.656;2023-07-30T23:03:10;17.7;78.1
81140;SHT31;70624;51.978;5.656;2023-07-30T23:05:39;17.7;78.7
81140;SHT31;70624;51.978;5.656;2023-07-30T23:08:07;17.6;78.4
81140;SHT31;70624;51.978;5.656;2023-07-30T23:10:36;17.6;78.7
81140;SHT31;70624;51.978;5.656;2023-07-30T23:13:04;17.6;79.2
81140;SHT31;70624;51.978;5.656;2023-07-30T23:15:34;17.6;78.6
81140;SHT31;70624;51.978;5.656;2023-07-30T23:18:05;17.6;78.5
81140;SHT31;70624;51.978;5.656;2023-07-30T23:20:33;17.6;78.6
81140;SHT31;70624;51.978;5.656;2023-07-30T23:23:01;17.6;78.3
81140;SHT31;70624;51.978;5.656;2023-07-30T23:25:30;17.6;78.6
81140;SHT31;70624;51.978;5.656;2023-07-30T23:27:58;17.5;78.9
81140;SHT31;70624;51.978;5.656;2023-07-30T23:30:28;17.5;79.7
81140;SHT31;70624;51.978;5.656;2023-07-30T23:32:57;17.5;79.6
81140;SHT31;70624;51.978;5.656;2023-07-30T23:35:27;17.4;79.5
81140;SHT31;70624;51.978;5.656;2023-07-30T23:37:55;17.4;79.7
81140;SHT31;70624;51.978;5.656;2023-07-30T23:40:24;17.4;80.5
81140;SHT31;70624;51.978;5.656;2023-07-30T23:42:52;17.3;80.5
81140;SHT31;70624;51.978;5.656;2023-07-30T23:45:21;17.3;81.0
81140;SHT31;70624;51.978;5.656;2023-07-30T23:47:49;17.3;81.0
81140;SHT31;70624;51.978;5.656;2023-07-30T23:50:18;17.3;81.2
81140;SHT31;70624;51.978;5.656;2023-07-30T23:52:46;17.3;81.6
81140;SHT31;70624;51.978;5.656;2023-07-30T23:55:17;17.3;81.4
81140;SHT31;70624;51.978;5.656;2023-07-30T23:57:47;17.3;81.6
